Time;durP1;ratioP1;P1;durP2;ratioP2;P2;SDS_P1;SDS_P2;PMS_P1;PMS_P2;Temp;Humidity;BMP_temperature;BMP_pressure;BME280_temperature;BME280_humidity;BME280_pressure;Samples;Min_cycle;Max_cycle;Signal;HPM_P1;HPM_P2
2021/07/04 00:00:48;;;;;;;24.95;10.35;;;;;;;23.45;75.03;99832.25;1886876;76;21543;-62
2021/07/04 00:03:17;;;;;;;24.90;9.48;;;;;;;23.42;75.06;99824.50;1886812;76;21038;-63
2021/07/04 00:05:48;;;;;;;20.37;10.70;;;;;;;23.41;75.07;99822.84;1886997;76;21199;-63
2021/07/04 00:08:20;;;;;;;23.87;10.43;;;;;;;23.41;75.25;99829.56;1886965;76;21010;-63
2021/07/04 00:11:02;;;;;;;22.58;9.70;;;;;;;23.42;75.35;99839.28;1887674;75;21151;-62
2021/07/04 00:13:30;;;;;;;21.73;8.93;;;;;;;23.44;75.25;99841.33;1889208;75;21124;-63
2021/07/04 00:16:00;;;;;;;21.25;9.58;;;;;;;23.45;75.16;99846.19;1889559;76;21066;-63
2021/07/04 00:18:31;;;;;;;18.98;10.55;;;;;;;23.44;75.09;99831.92;1889628;76;21108;-63
2021/07/04 00:21:03;;;;;;;21.27;10.45;;;;;;;23.43;75.16;99824.86;1889723;76;21026;-63
2021/07/04 00:23:32;;;;;;;22.67;11.30;;;;;;;23.37;75.34;99812.10;1889655;76;21007;-63
2021/07/04 00:26:02;;;;;;;18.37;10.35;;;;;;;23.34;75.41;99813.77;1889668;76;21055;-63
2021/07/04 00:28:30;;;;;;;20.32;9.75;;;;;;;23.29;75.47;99795.95;1889560;76;21489;-63
2021/07/04 00:31:01;;;;;;;21.95;11.05;;;;;;;23.23;75.59;99788.56;1889540;76;21156;-63
2021/07/04 00:33:30;;;;;;;22.10;10.88;;;;;;;23.15;75.75;99791.22;1889646;76;21497;-63
2021/07/04 00:35:59;;;;;;;25.27;11.00;;;;;;;23.07;75.93;99804.13;1889649;76;21168;-63
2021/07/04 00:38:28;;;;;;;16.45;8.60;;;;;;;23.03;75.94;99796.87;1889765;76;21027;-63
2021/07/04 00:40:57;;;;;;;23.27;9.53;;;;;;;23.02;75.68;99795.69;1889584;76;21104;-63
2021/07/04 00:43:26;;;;;;;19.98;9.00;;;;;;;22.99;75.48;99788.81;1889728;76;21120;-63
2021/07/04 00:45:56;;;;;;;16.90;8.88;;;;;;;22.95;75.51;99790.15;1889688;76;21030;-63
2021/07/04 00:48:25;;;;;;;15.65;9.23;;;;;;;22.90;75.56;99783.91;1889797;76;21434;-63
2021/07/04 00:50:54;;;;;;;12.88;7.40;;;;;;;22.85;75.50;99780.04;1889670;76;21559;-63
2021/07/04 00:53:24;;;;;;;14.28;7.95;;;;;;;22.80;75.38;99781.88;1889594;76;21053;-64
2021/07/04 00:55:53;;;;;;;18.67;8.33;;;;;;;22.76;75.33;99780.53;1889701;76;21018;-63
2021/07/04 00:58:22;;;;;;;16.70;8.05;;;;;;;22.73;75.33;99788.39;1889624;76;21567;-63
2021/07/04 01:00:52;;;;;;;18.00;7.30;;;;;;;22.70;75.30;99787.87;1889886;75;21010;-63
2021/07/04 01:03:21;;;;;;;14.70;7.28;;;;;;;22.65;75.22;99791.05;1889600;76;21031;-63
2021/07/04 01:05:51;;;;;;;17.85;7.50;;;;;;;22.63;75.12;99802.45;1889468;76;21156;-64
2021/07/04 01:08:21;;;;;;;16.00;7.47;;;;;;;22.60;75.07;99817.52;1889813;76;21022;-63
2021/07/04 01:10:51;;;;;;;13.65;8.00;;;;;;;22.57;75.08;99823.19;1891513;75;21089;-63
2021/07/04 01:13:21;;;;;;;20.30;8.63;;;;;;;22.56;75.18;99813.48;1907204;75;21493;-63
2021/07/04 01:15:52;;;;;;;16.80;8.05;;;;;;;22.53;75.29;99807.08;1905464;74;21177;-63
2021/07/04 01:18:21;;;;;;;15.65;7.72;;;;;;;22.51;75.38;99803.72;1905255;74;21532;-63
2021/07/04 01:20:53;;;;;;;14.53;7.60;;;;;;;22.47;75.42;99806.39;1904529;74;21533;-63
2021/07/04 01:23:23;;;;;;;18.20;8.60;;;;;;;22.44;75.46;99805.36;1905510;75;21019;-63
2021/07/04 01:25:54;;;;;;;15.13;8.73;;;;;;;22.43;75.46;99800.50;1905487;75;21100;-63
2021/07/04 01:28:24;;;;;;;;;;;;;;;22.43;75.52;99792.94;1908225;74;21099;-63
2021/07/04 01:30:58;;;;;;;13.18;8.65;;;;;;;22.39;75.45;99795.13;1905372;75;20153;-63
2021/07/04 01:33:28;;;;;;;15.53;8.45;;;;;;;22.35;75.50;99794.59;1905614;75;21034;-63
2021/07/04 01:35:57;;;;;;;15.78;7.85;;;;;;;22.34;75.63;99797.44;1905424;75;21035;-63
2021/07/04 01:38:28;;;;;;;15.43;8.58;;;;;;;22.33;75.59;99799.25;1905371;74;21083;-63
2021/07/04 01:40:57;;;;;;;11.90;8.35;;;;;;;22.33;75.63;99799.77;1905465;75;21490;-63
2021/07/04 01:43:26;;;;;;;14.13;7.97;;;;;;;22.32;75.70;99806.14;1905222;75;21063;-63
2021/07/04 01:45:55;;;;;;;20.00;9.05;;;;;;;22.30;75.70;99811.66;1905401;75;21136;-63
2021/07/04 01:48:24;;;;;;;17.02;7.35;;;;;;;22.29;75.61;99813.16;1905343;75;21481;-63
2021/07/04 01:50:53;;;;;;;15.32;8.05;;;;;;;22.29;75.49;99800.58;1905405;75;21532;-63
2021/07/04 01:53:24;;;;;;;12.18;7.40;;;;;;;22.29;75.41;99789.85;1904951;75;21099;-63
2021/07/04 01:55:54;;;;;;;13.03;7.65;;;;;;;22.30;75.37;99789.38;1905287;74;21507;-64
2021/07/04 01:58:24;;;;;;;10.38;6.65;;;;;;;22.28;75.29;99789.53;1905335;75;21087;-63
2021/07/04 02:00:54;;;;;;;19.07;7.80;;;;;;;22.26;75.17;99788.85;1905401;75;21091;-63
2021/07/04 02:03:23;;;;;;;16.77;8.33;;;;;;;22.24;75.04;99792.12;1905340;75;21106;-63
2021/07/04 02:05:56;;;;;;;20.17;10.65;;;;;;;22.22;75.01;99795.98;1905680;74;21083;-63
2021/07/04 02:08:27;;;;;;;23.55;11.65;;;;;;;22.21;75.01;99800.51;1905160;74;21580;-63
2021/07/04 02:10:58;;;;;;;23.22;9.45;;;;;;;22.22;75.13;99804.02;1903679;75;21096;-63
2021/07/04 02:13:27;;;;;;;15.00;9.18;;;;;;;22.22;75.21;99794.13;1913488;74;21077;-63
2021/07/04 02:15:56;;;;;;;15.58;8.30;;;;;;;22.24;75.28;99788.61;1889858;76;21058;-63
2021/07/04 02:18:44;;;;;;;16.25;9.68;;;;;;;22.26;75.34;99786.64;1889651;76;21046;-63
2021/07/04 02:21:23;;;;;;;15.60;9.58;;;;;;;22.24;75.59;99786.77;1889761;76;21180;-63
2021/07/04 02:23:54;;;;;;;20.75;10.00;;;;;;;22.22;75.91;99790.62;1885478;75;21047;-63
2021/07/04 02:26:27;;;;;;;17.40;9.50;;;;;;;22.19;76.23;99795.81;1889794;75;21082;-63
2021/07/04 02:28:57;;;;;;;18.65;10.95;;;;;;;22.17;76.31;99798.64;1889577;75;21086;-63
2021/07/04 02:31:28;;;;;;;26.90;11.03;;;;;;;22.19;76.25;99797.15;1887900;74;21156;-63
2021/07/04 02:33:58;;;;;;;18.37;9.90;;;;;;;22.20;76.40;99799.32;1889675;76;21071;-63
2021/07/04 02:36:28;;;;;;;22.52;10.65;;;;;;;22.23;76.30;99797.67;1889763;73;21094;-63
2021/07/04 02:38:58;;;;;;;21.60;11.95;;;;;;;22.26;76.24;99794.21;1889618;76;21082;-63
2021/07/04 02:41:27;;;;;;;18.23;12.35;;;;;;;22.31;76.27;99799.91;1889932;76;21547;-64
2021/07/04 02:43:56;;;;;;;16.42;11.30;;;;;;;22.41;76.29;99801.64;1889605;76;21058;-63
2021/07/04 02:46:25;;;;;;;17.23;9.20;;;;;;;22.44;76.19;99802.17;1889814;76;21082;-63
2021/07/04 02:48:55;;;;;;;18.67;9.05;;;;;;;22.54;75.99;99798.88;1889690;76;21054;-63
2021/07/04 02:51:23;;;;;;;14.18;8.60;;;;;;;22.62;75.67;99794.05;1889863;76;21457;-63
2021/07/04 02:53:53;;;;;;;16.57;8.40;;;;;;;22.71;75.46;99791.73;1889730;76;21062;-63
2021/07/04 02:56:23;;;;;;;17.30;8.25;;;;;;;22.84;75.37;99787.77;1889512;76;21090;-63
2021/07/04 02:58:53;;;;;;;15.88;8.05;;;;;;;22.97;75.26;99778.74;1889646;76;21088;-63
2021/07/04 03:01:22;;;;;;;21.75;8.48;;;;;;;23.15;75.18;99768.39;1889689;76;21128;-63
2021/07/04 03:03:51;;;;;;;14.07;8.88;;;;;;;23.26;74.94;99761.39;1889869;76;21101;-63
2021/07/04 03:06:20;;;;;;;12.65;7.50;;;;;;;23.34;74.61;99756.02;1889619;76;21038;-63
2021/07/04 03:08:49;;;;;;;15.85;8.08;;;;;;;23.39;74.24;99753.67;1889542;76;21054;-64
2021/07/04 03:11:20;;;;;;;11.08;7.95;;;;;;;23.42;74.08;99750.64;1889512;76;21216;-63
2021/07/04 03:13:50;;;;;;;13.22;7.83;;;;;;;23.41;73.90;99742.26;1893635;76;21087;-63
2021/07/04 03:16:20;;;;;;;18.75;9.15;;;;;;;23.37;73.64;99749.45;1888976;76;21153;-63
2021/07/04 03:18:50;;;;;;;23.60;11.38;;;;;;;23.32;73.35;99751.31;1884171;76;21089;-63
2021/07/04 03:21:19;;;;;;;16.55;9.08;;;;;;;23.25;73.20;99758.36;1884013;76;21091;-63
2021/07/04 03:23:49;;;;;;;20.68;8.85;;;;;;;23.18;73.10;99761.36;1884036;76;21119;-63
2021/07/04 03:26:20;;;;;;;16.30;7.85;;;;;;;23.12;73.03;99769.06;1884141;76;21052;-63
2021/07/04 03:28:50;;;;;;;10.43;6.03;;;;;;;23.06;72.82;99780.48;1884201;76;21075;-63
2021/07/04 03:31:20;;;;;;;11.60;7.25;;;;;;;23.03;72.57;99794.19;1884978;75;21076;-63
2021/07/04 03:33:51;;;;;;;14.83;7.58;;;;;;;23.02;72.40;99797.89;1883984;76;21515;-64
2021/07/04 03:36:20;;;;;;;16.65;7.97;;;;;;;23.05;72.29;99800.77;1913651;75;21029;-63
2021/07/04 03:38:49;;;;;;;21.12;9.00;;;;;;;23.13;72.16;99798.13;1883909;76;21052;-63
2021/07/04 03:41:19;;;;;;;24.32;8.08;;;;;;;23.24;72.10;99803.66;1884000;76;21083;-63
2021/07/04 03:43:48;;;;;;;22.02;9.40;;;;;;;23.32;72.17;99814.44;1884177;76;21462;-63
2021/07/04 03:46:19;;;;;;;19.40;9.20;;;;;;;23.44;72.37;99815.81;1884011;76;21487;-63
2021/07/04 03:48:50;;;;;;;18.20;8.90;;;;;;;23.53;72.56;99810.43;1884237;76;21185;-63
2021/07/04 03:51:21;;;;;;;13.32;8.25;;;;;;;23.58;72.57;99798.69;1884778;75;21099;-63
2021/07/04 03:53:50;;;;;;;21.52;9.00;;;;;;;23.66;72.50;99790.13;1883984;76;21593;-63
2021/07/04 03:56:20;;;;;;;16.55;8.73;;;;;;;23.74;72.29;99783.05;1884025;76;21040;-63
2021/07/04 03:58:50;;;;;;;17.82;8.28;;;;;;;23.83;71.94;99776.20;1884120;76;21056;-63
2021/07/04 04:01:20;;;;;;;14.45;7.78;;;;;;;23.89;71.21;99774.17;1883953;76;21194;-63
2021/07/04 04:03:51;;;;;;;13.93;8.20;;;;;;;23.88;70.98;99777.03;1883990;75;21085;-63
2021/07/04 04:06:21;;;;;;;17.15;8.68;;;;;;;23.91;70.86;99773.18;1884115;76;21118;-62
2021/07/04 04:08:51;;;;;;;21.65;9.30;;;;;;;23.96;70.86;99765.42;1884888;75;21146;-63
2021/07/04 04:11:24;;;;;;;14.25;8.30;;;;;;;23.97;70.97;99749.13;1885188;75;21108;-65
2021/07/04 04:13:54;;;;;;;16.93;7.75;;;;;;;23.97;70.91;99745.09;1885411;74;21252;-62
2021/07/04 04:16:24;;;;;;;18.12;8.43;;;;;;;24.00;70.84;99745.27;1883989;76;21553;-62
2021/07/04 04:18:53;;;;;;;15.98;7.62;;;;;;;24.04;70.92;99750.64;1884008;76;21123;-62
2021/07/04 04:21:24;;;;;;;17.27;7.50;;;;;;;24.07;70.80;99762.41;1883958;76;21071;-63
2021/07/04 04:23:57;;;;;;;14.78;8.10;;;;;;;24.15;70.71;99783.88;1884587;75;21122;-63
2021/07/04 04:26:26;;;;;;;12.73;7.97;;;;;;;24.27;70.44;99787.90;1884206;76;21464;-63
2021/07/04 04:28:57;;;;;;;16.87;8.03;;;;;;;24.47;70.22;99784.31;1883984;76;21103;-63
2021/07/04 04:31:26;;;;;;;13.90;7.78;;;;;;;24.58;69.94;99790.34;1884028;76;21142;-62
2021/07/04 04:33:55;;;;;;;23.52;8.05;;;;;;;24.63;69.65;99799.58;1884015;76;21522;-63
2021/07/04 04:36:25;;;;;;;17.05;8.20;;;;;;;24.78;69.52;99798.84;1884195;76;21447;-62
2021/07/04 04:38:53;;;;;;;22.75;9.15;;;;;;;24.99;69.30;99813.91;1883901;76;21638;-62
2021/07/04 04:41:22;;;;;;;16.48;8.80;;;;;;;25.05;69.00;99816.40;1884070;76;21620;-63
2021/07/04 04:43:51;;;;;;;21.12;8.68;;;;;;;25.06;68.71;99809.98;1884083;76;21060;-63
2021/07/04 04:46:20;;;;;;;20.43;8.40;;;;;;;25.08;68.47;99800.38;1884101;76;21041;-62
2021/07/04 04:48:49;;;;;;;21.62;8.20;;;;;;;25.03;67.92;99788.29;1884010;76;21138;-62
2021/07/04 04:51:18;;;;;;;18.45;8.75;;;;;;;25.02;67.99;99786.60;1883970;76;21479;-62
2021/07/04 04:53:46;;;;;;;22.40;8.73;;;;;;;25.11;67.84;99787.91;1884060;76;21496;-62
2021/07/04 04:56:15;;;;;;;21.97;9.73;;;;;;;25.28;67.58;99778.73;1884295;76;21052;-62
2021/07/04 04:58:45;;;;;;;19.12;9.10;;;;;;;25.57;67.30;99777.19;1884078;76;21498;-62
2021/07/04 05:01:14;;;;;;;18.48;8.25;;;;;;;26.00;66.70;99766.70;1883740;76;21562;-62
2021/07/04 05:03:44;;;;;;;18.10;7.85;;;;;;;26.44;66.15;99773.16;1883381;76;21170;-63
2021/07/04 05:06:13;;;;;;;14.35;7.67;;;;;;;26.86;65.33;99772.48;1883998;75;21099;-62
2021/07/04 05:08:42;;;;;;;17.75;8.08;;;;;;;27.22;64.36;99762.16;1884053;76;21068;-62
2021/07/04 05:11:11;;;;;;;22.73;7.92;;;;;;;27.57;63.11;99767.72;1883963;76;21071;-62
2021/07/04 05:13:40;;;;;;;17.87;6.83;;;;;;;27.99;62.50;99749.78;1884038;76;21483;-63
2021/07/04 05:16:09;;;;;;;14.23;6.60;;;;;;;28.25;60.95;99736.93;1892980;75;21575;-63
2021/07/04 05:18:38;;;;;;;15.63;6.83;;;;;;;28.60;60.64;99734.73;1893059;76;21042;-62
2021/07/04 05:21:07;;;;;;;11.78;6.70;;;;;;;28.91;59.64;99734.75;1892973;76;20997;-61
2021/07/04 05:23:36;;;;;;;14.70;7.12;;;;;;;29.04;58.28;99731.54;1893000;76;21041;-63
2021/07/04 05:26:04;;;;;;;19.90;7.78;;;;;;;29.26;57.73;99734.12;1892950;76;21010;-63
2021/07/04 05:28:33;;;;;;;11.83;6.70;;;;;;;29.40;56.47;99723.61;1892970;76;21116;-63
2021/07/04 05:31:02;;;;;;;10.58;6.67;;;;;;;29.54;56.16;99725.78;1892958;76;21040;-62
2021/07/04 05:33:31;;;;;;;11.43;6.80;;;;;;;29.79;56.19;99725.20;1893573;76;21434;-62
2021/07/04 05:36:00;;;;;;;17.73;6.72;;;;;;;30.13;55.48;99715.11;1891804;76;21137;-62
2021/07/04 05:38:35;;;;;;;14.83;8.15;;;;;;;30.46;54.64;99700.62;1886173;76;21128;-62
2021/07/04 05:40:59;;;;;;;11.00;6.42;;;;;;;30.73;54.04;99686.39;1886548;76;21021;-62
2021/07/04 05:43:28;;;;;;;20.25;6.67;;;;;;;30.90;53.69;99677.19;1892891;76;21449;-61
2021/07/04 05:45:59;;;;;;;20.60;6.05;;;;;;;31.11;52.78;99671.41;1893022;76;21515;-61
2021/07/04 05:48:29;;;;;;;11.20;6.05;;;;;;;31.33;52.04;99663.70;1893302;76;21118;-61
2021/07/04 05:50:59;;;;;;;10.68;5.20;;;;;;;31.56;51.26;99651.42;1893181;76;21017;-61
2021/07/04 05:53:28;;;;;;;9.08;6.08;;;;;;;31.76;50.47;99640.31;1893083;76;21016;-62
2021/07/04 05:55:57;;;;;;;12.60;5.50;;;;;;;31.84;49.36;99637.84;1892788;76;21123;-62
2021/07/04 05:58:25;;;;;;;11.57;5.42;;;;;;;31.84;49.37;99640.03;1893232;76;21026;-63
2021/07/04 06:00:54;;;;;;;12.18;5.10;;;;;;;31.75;49.15;99631.32;1893175;76;21139;-62
2021/07/04 06:03:23;;;;;;;13.65;5.35;;;;;;;31.72;48.99;99628.22;1893028;76;21073;-63
2021/07/04 06:05:51;;;;;;;10.45;4.37;;;;;;;31.69;48.99;99628.69;1893000;76;21029;-62
2021/07/04 06:08:20;;;;;;;12.10;4.92;;;;;;;31.71;48.48;99644.27;1893121;76;21025;-63
2021/07/04 06:10:51;;;;;;;12.73;5.15;;;;;;;31.71;48.08;99661.95;1893018;76;21103;-63
2021/07/04 06:13:20;;;;;;;14.75;5.45;;;;;;;31.75;47.74;99661.80;1893065;76;21021;-62
2021/07/04 06:15:49;;;;;;;9.78;5.05;;;;;;;31.90;47.98;99655.98;1873600;76;21577;-62
2021/07/04 06:18:17;;;;;;;10.78;4.90;;;;;;;32.13;47.08;99667.60;1870502;76;21556;-62
2021/07/04 06:20:46;;;;;;;10.25;5.25;;;;;;;32.44;46.54;99674.73;1874128;76;21466;-63
2021/07/04 06:23:15;;;;;;;10.32;4.70;;;;;;;32.65;46.65;99678.08;1874205;76;21176;-62
2021/07/04 06:25:43;;;;;;;13.50;5.25;;;;;;;32.92;46.29;99674.41;1874154;76;21114;-62
2021/07/04 06:28:12;;;;;;;11.88;5.00;;;;;;;32.86;45.72;99673.45;1874210;76;21035;-62
2021/07/04 06:30:41;;;;;;;11.57;5.42;;;;;;;32.92;45.82;99677.14;1874287;76;21454;-62
2021/07/04 06:33:11;;;;;;;9.83;4.80;;;;;;;32.99;44.90;99687.42;1874161;76;21152;-62
2021/07/04 06:35:40;;;;;;;15.53;6.10;;;;;;;33.13;44.49;99695.45;1874239;76;21135;-62
2021/07/04 06:38:09;;;;;;;8.33;4.97;;;;;;;33.26;44.03;99703.41;1874262;76;21443;-62
2021/07/04 06:40:38;;;;;;;9.05;5.37;;;;;;;33.28;43.28;99717.64;1874420;76;21435;-62
2021/07/04 06:43:06;;;;;;;13.98;5.45;;;;;;;32.97;43.46;99724.99;1874288;76;21059;-62
2021/07/04 06:45:35;;;;;;;22.37;13.08;;;;;;;32.30;44.25;99731.28;1874236;76;21051;-62
2021/07/04 06:48:05;;;;;;;11.48;8.28;;;;;;;31.63;45.07;99731.60;1874152;76;21197;-62
2021/07/04 06:50:34;;;;;;;11.93;6.33;;;;;;;31.28;46.14;99741.06;1874442;76;21090;-62
2021/07/04 06:53:02;;;;;;;19.80;11.05;;;;;;;30.97;46.83;99750.05;1874452;76;21526;-63
2021/07/04 06:55:31;;;;;;;17.95;8.50;;;;;;;30.55;47.61;99756.37;1874309;76;21173;-62
2021/07/04 06:58:00;;;;;;;11.48;7.72;;;;;;;30.40;48.43;99747.95;1874224;75;21071;-62
2021/07/04 07:00:29;;;;;;;18.62;13.25;;;;;;;30.91;48.35;99738.66;1874215;76;21023;-63
2021/07/04 07:02:58;;;;;;;15.00;9.85;;;;;;;31.49;47.78;99746.68;1874320;76;21137;-63
2021/07/04 07:05:27;;;;;;;13.05;7.53;;;;;;;31.81;47.25;99743.89;1874213;76;21091;-63
2021/07/04 07:07:55;;;;;;;10.98;6.78;;;;;;;31.80;47.27;99725.91;1887093;75;21083;-63
2021/07/04 07:10:24;;;;;;;17.20;7.78;;;;;;;31.59;47.48;99720.33;1906774;75;21114;-63
2021/07/04 07:12:53;;;;;;;14.80;7.12;;;;;;;31.35;47.88;99709.72;1906594;75;21059;-63
2021/07/04 07:15:23;;;;;;;15.53;6.75;;;;;;;31.30;48.44;99704.96;1903749;75;21078;-63
2021/07/04 07:17:52;;;;;;;17.80;7.78;;;;;;;31.26;48.64;99698.27;1870437;76;21142;-62
2021/07/04 07:20:21;;;;;;;14.47;6.58;;;;;;;31.24;49.12;99700.92;1869963;76;21036;-63
2021/07/04 07:22:50;;;;;;;11.18;6.83;;;;;;;31.18;49.04;99698.56;1908030;75;21027;-63
2021/07/04 07:25:20;;;;;;;19.73;8.13;;;;;;;30.94;48.93;99684.70;1917703;74;21152;-63
2021/07/04 07:27:51;;;;;;;15.32;7.42;;;;;;;30.79;49.20;99682.26;1918115;74;21570;-63
2021/07/04 07:30:21;;;;;;;96.25;43.98;;;;;;;30.77;49.44;99682.18;1918491;74;21551;-63
2021/07/04 07:32:50;;;;;;;14.73;7.20;;;;;;;30.79;49.70;99686.34;1918567;75;21027;-63
2021/07/04 07:35:19;;;;;;;15.85;7.83;;;;;;;30.71;49.66;99677.59;1918079;75;21055;-61
2021/07/04 07:37:51;;;;;;;54.35;15.75;;;;;;;30.75;49.69;99693.27;1874204;74;21146;-61
2021/07/04 07:40:20;;;;;;;29.02;13.03;;;;;;;30.81;49.54;99725.52;1875371;76;21204;-61
2021/07/04 07:42:51;;;;;;;24.05;8.80;;;;;;;30.87;49.61;99723.81;1914761;75;21091;-63
2021/07/04 07:45:19;;;;;;;16.57;7.75;;;;;;;31.16;49.45;99718.34;1892301;75;21043;-62
2021/07/04 07:47:49;;;;;;;19.73;7.97;;;;;;;31.27;49.45;99705.39;1916584;75;21091;-62
2021/07/04 07:50:18;;;;;;;14.87;8.48;;;;;;;31.41;49.09;99697.98;1918645;74;21063;-63
2021/07/04 07:52:47;;;;;;;19.20;9.23;;;;;;;31.53;49.00;99685.86;1883608;75;21023;-62
2021/07/04 07:55:16;;;;;;;15.05;8.18;;;;;;;31.76;49.52;99682.48;1883335;76;21538;-63
2021/07/04 07:57:45;;;;;;;17.40;7.58;;;;;;;31.90;49.15;99670.41;1883607;76;21521;-63
2021/07/04 08:00:15;;;;;;;12.43;8.35;;;;;;;31.94;48.87;99660.73;1883392;76;21067;-63
2021/07/04 08:02:43;;;;;;;15.28;7.90;;;;;;;32.23;48.98;99652.91;1883313;75;21124;-63
2021/07/04 08:05:13;;;;;;;19.00;8.80;;;;;;;32.54;48.81;99642.02;1883150;76;21153;-63
2021/07/04 08:07:42;;;;;;;15.20;9.05;;;;;;;32.63;48.53;99641.52;1883420;76;21454;-63
2021/07/04 08:10:13;;;;;;;15.20;8.95;;;;;;;32.73;48.27;99644.21;1883373;76;21149;-63
2021/07/04 08:12:44;;;;;;;18.82;8.90;;;;;;;32.86;48.03;99658.45;1883416;76;21113;-63
2021/07/04 08:15:13;;;;;;;18.80;8.18;;;;;;;32.97;47.75;99666.37;1882743;76;21099;-65
2021/07/04 08:17:44;;;;;;;15.68;8.50;;;;;;;33.07;47.55;99665.28;1913035;75;21118;-65
2021/07/04 08:20:14;;;;;;;12.60;8.53;;;;;;;33.05;47.49;99663.84;1918412;75;21039;-65
2021/07/04 08:22:43;;;;;;;13.35;8.20;;;;;;;33.19;48.05;99659.87;1884067;75;21043;-61
2021/07/04 08:25:13;;;;;;;23.30;8.00;;;;;;;33.75;47.61;99668.58;1893653;75;21030;-61
2021/07/04 08:27:43;;;;;;;17.35;8.73;;;;;;;34.05;46.41;99658.05;1884282;75;21039;-63
2021/07/04 08:30:13;;;;;;;18.15;8.55;;;;;;;33.88;46.81;99662.03;1880910;76;21146;-63
2021/07/04 08:32:42;;;;;;;18.65;8.80;;;;;;;33.73;47.07;99651.61;1914732;75;21023;-64
2021/07/04 08:35:12;;;;;;;15.23;9.30;;;;;;;33.35;46.88;99647.45;1918631;75;21112;-63
2021/07/04 08:37:41;;;;;;;13.78;9.00;;;;;;;33.22;47.87;99646.31;1886478;75;21043;-62
2021/07/04 08:40:11;;;;;;;18.23;10.08;;;;;;;33.45;48.23;99631.30;1883281;76;21120;-64
2021/07/04 08:42:40;;;;;;;19.15;9.63;;;;;;;33.83;47.89;99630.01;1883242;75;21063;-64
2021/07/04 08:45:10;;;;;;;18.37;10.15;;;;;;;34.02;47.71;99627.12;1883349;76;21020;-64
2021/07/04 08:47:39;;;;;;;14.23;9.00;;;;;;;33.67;47.58;99633.47;1883418;76;21047;-64
2021/07/04 08:50:09;;;;;;;16.60;9.23;;;;;;;33.24;47.98;99627.81;1883449;76;21121;-64
2021/07/04 08:52:39;;;;;;;13.10;9.10;;;;;;;32.73;48.62;99616.95;1883426;75;21055;-64
2021/07/04 08:55:11;;;;;;;14.90;9.83;;;;;;;32.45;49.68;99608.84;1883219;76;21113;-65
2021/07/04 08:57:40;;;;;;;23.30;10.45;;;;;;;32.29;50.37;99597.50;1883436;75;21498;-64
2021/07/04 09:00:10;;;;;;;25.17;10.90;;;;;;;32.10;50.53;99583.64;1883515;76;21478;-64
2021/07/04 09:02:39;;;;;;;22.13;9.93;;;;;;;31.86;51.14;99577.21;1883437;76;21149;-64
2021/07/04 09:05:13;;;;;;;18.25;10.05;;;;;;;31.67;52.05;99593.55;1883345;76;21071;-63
2021/07/04 09:07:43;;;;;;;18.32;10.05;;;;;;;31.39;53.04;99599.42;1885443;76;21043;-64
2021/07/04 09:10:17;;;;;;;17.25;10.45;;;;;;;31.02;53.95;99604.77;1883320;76;21571;-64
2021/07/04 09:12:49;;;;;;;15.32;10.48;;;;;;;30.82;54.57;99604.06;1883341;76;21509;-64
2021/07/04 09:15:26;;;;;;;17.53;9.90;;;;;;;30.64;55.21;99611.09;1883533;75;21044;-64
2021/07/04 09:17:58;;;;;;;24.18;11.73;;;;;;;30.50;55.34;99633.95;1900564;75;21165;-65
2021/07/04 09:20:37;;;;;;;16.93;10.13;;;;;;;30.28;56.24;99655.95;1917685;75;21328;-64
2021/07/04 09:23:05;;;;;;;16.40;10.68;;;;;;;30.10;56.86;99669.38;1917721;75;21098;-64
2021/07/04 09:25:39;;;;;;;14.68;10.05;;;;;;;29.88;57.17;99669.66;1917697;75;21011;-64
2021/07/04 09:28:11;;;;;;;18.50;10.63;;;;;;;29.71;57.59;99669.22;1917717;75;21093;-64
2021/07/04 09:30:46;;;;;;;17.60;11.12;;;;;;;29.54;58.49;99659.88;1917849;75;21039;-64
2021/07/04 09:33:17;;;;;;;29.02;7.87;;;;;;;29.34;59.36;99661.23;1917782;75;21100;-63
2021/07/04 09:36:05;;;;;;;17.17;6.45;;;;;;;28.94;55.39;99674.71;1918025;75;21088;-64
2021/07/04 09:38:36;;;;;;;14.90;6.95;;;;;;;28.19;54.69;99705.79;1917284;75;21007;-62
2021/07/04 09:41:07;;;;;;;17.87;7.53;;;;;;;27.65;56.59;99713.52;1918015;75;21019;-63
2021/07/04 09:43:37;;;;;;;19.57;6.80;;;;;;;27.43;57.71;99736.22;1915306;75;21051;-63
2021/07/04 09:46:09;;;;;;;16.52;6.70;;;;;;;27.01;58.59;99751.35;1906181;75;21103;-62
2021/07/04 09:48:47;;;;;;;19.73;7.22;;;;;;;26.66;59.84;99787.08;1889074;75;21040;-63
2021/07/04 09:51:24;;;;;;;30.23;13.53;;;;;;;26.15;63.52;99798.60;1871072;75;21153;-68
2021/07/04 09:54:00;;;;;;;27.02;12.68;;;;;;;25.36;70.06;99762.52;1893165;75;21063;-63
2021/07/04 09:56:28;;;;;;;20.57;7.50;;;;;;;24.75;71.22;99739.48;1916656;75;21195;-63
2021/07/04 09:59:00;;;;;;;10.05;6.45;;;;;;;24.18;70.53;99788.93;1917772;75;21039;-67
2021/07/04 10:01:42;;;;;;;13.32;7.60;;;;;;;23.48;70.02;99785.42;1918013;75;21489;-61
2021/07/04 10:04:36;;;;;;;16.95;7.53;;;;;;;22.88;71.86;99788.61;1913890;75;21471;-62
2021/07/04 10:07:05;;;;;;;14.20;6.55;;;;;;;22.36;73.24;99805.65;1909204;74;21526;-61
2021/07/04 10:09:34;;;;;;;15.35;8.63;;;;;;;22.05;73.62;99803.91;1909630;75;21536;-62
2021/07/04 10:12:03;;;;;;;18.80;9.15;;;;;;;21.97;74.14;99840.88;1900130;75;21583;-63
2021/07/04 10:14:32;;;;;;;17.87;8.98;;;;;;;21.92;75.99;99862.45;1901573;75;21043;-63
2021/07/04 10:17:02;;;;;;;16.77;8.83;;;;;;;22.00;75.19;99861.67;1882675;75;21068;-64
2021/07/04 10:19:32;;;;;;;16.32;8.03;;;;;;;22.12;75.06;99864.45;1879512;73;21068;-63
2021/07/04 10:22:03;;;;;;;12.95;7.40;;;;;;;22.26;74.65;99866.61;1891431;75;21020;-62
2021/07/04 10:24:32;;;;;;;16.77;8.38;;;;;;;22.36;74.38;99870.02;1902687;75;21097;-63
2021/07/04 10:27:03;;;;;;;11.35;6.20;;;;;;;22.46;74.13;99874.44;1916423;75;21475;-62
2021/07/04 10:29:33;;;;;;;12.13;5.97;;;;;;;22.51;74.05;99897.09;1915578;75;21035;-61
2021/07/04 10:32:10;;;;;;;12.85;6.12;;;;;;;22.51;73.66;99903.80;1915702;75;21105;-63
2021/07/04 10:34:44;;;;;;;17.73;7.83;;;;;;;22.53;73.30;99908.52;1915696;75;21108;-62
2021/07/04 10:37:14;;;;;;;13.98;7.53;;;;;;;22.57;73.24;99906.86;1915597;75;21031;-63
2021/07/04 10:39:43;;;;;;;20.08;7.47;;;;;;;22.59;73.51;99897.64;1917285;74;21459;-62
2021/07/04 10:42:12;;;;;;;15.88;8.53;;;;;;;22.59;73.57;99889.59;1918448;75;21534;-62
2021/07/04 10:44:43;;;;;;;10.32;6.95;;;;;;;22.61;74.02;99878.23;1918439;75;21422;-62
2021/07/04 10:47:15;;;;;;;13.65;7.28;;;;;;;22.52;74.12;99876.00;1918520;75;21097;-62
2021/07/04 10:49:47;;;;;;;19.13;7.57;;;;;;;22.43;74.44;99886.80;1918618;75;21075;-62
2021/07/04 10:52:18;;;;;;;21.68;8.98;;;;;;;22.28;75.18;99884.72;1918421;75;21478;-62
2021/07/04 10:54:50;;;;;;;20.82;12.15;;;;;;;22.28;75.19;99882.52;1918508;75;21090;-62
2021/07/04 10:57:33;;;;;;;25.37;12.28;;;;;;;22.20;75.85;99881.93;1918472;75;21036;-62
2021/07/04 11:00:04;;;;;;;18.90;10.60;;;;;;;22.11;76.38;99885.06;1917075;75;21494;-60
2021/07/04 11:02:53;;;;;;;19.32;9.93;;;;;;;22.14;75.96;99897.31;1918561;75;21118;-62
2021/07/04 11:05:40;;;;;;;16.32;9.33;;;;;;;22.15;76.11;99900.31;1918492;74;21047;-62
2021/07/04 11:08:12;;;;;;;20.88;10.55;;;;;;;22.02;76.70;99910.09;1918177;74;21106;-62
2021/07/04 11:10:43;;;;;;;23.25;10.48;;;;;;;22.04;76.70;99910.81;1918406;75;21105;-63
2021/07/04 11:13:17;;;;;;;18.75;8.58;;;;;;;22.03;77.29;99912.30;1918469;75;21039;-62
2021/07/04 11:15:51;;;;;;;27.05;7.62;;;;;;;22.07;76.71;99901.60;1918531;75;21067;-62
2021/07/04 11:18:22;;;;;;;17.90;7.60;;;;;;;22.13;76.29;99899.63;1918475;73;21213;-62
2021/07/04 11:20:54;;;;;;;22.30;7.58;;;;;;;22.13;76.10;99901.84;1915999;74;21156;-62
2021/07/04 11:23:26;;;;;;;31.33;9.55;;;;;;;22.11;76.14;99894.93;1918501;75;21678;-62
2021/07/04 11:26:00;;;;;;;19.50;7.90;;;;;;;22.05;76.48;99894.22;1918596;75;21034;-62
2021/07/04 11:28:36;;;;;;;18.05;8.38;;;;;;;22.01;76.43;99892.84;1918474;75;21470;-62
2021/07/04 11:31:20;;;;;;;20.35;9.08;;;;;;;22.07;76.39;99869.44;1918495;75;21047;-62
2021/07/04 11:33:54;;;;;;;22.02;9.05;;;;;;;22.17;76.17;99860.81;1918361;75;21128;-62
2021/07/04 11:36:31;;;;;;;21.75;8.83;;;;;;;22.25;76.15;99842.59;1918565;74;21105;-62
2021/07/04 11:38:59;;;;;;;20.43;7.85;;;;;;;22.31;76.16;99840.65;1917082;75;21039;-62